Terminal Aerodrome Forecast
Issued by NWS

Home | Current Version | Previous Version | Text Only | Print | Product List | Glossary On
Versions: 1 2 3 4 5 6 7 8 9 10 11 12 13 14 15 16 17
000
FTUS45 KSLC 262332
TAFLGU
TAF
KLGU 262332Z 2700/2724 VRB04KT P6SM BKN070 OVC150
     FM270900 VRB05KT P6SM VCSH BKN040 OVC060
     FM271200 34005KT P6SM VCSH BKN040 OVC070
     FM272200 33008KT 5SM -RA BR BKN008 OVC040=

USA.gov is the U.S. government's official web portal to all federal, state and local government web resources and services.